sensor_id;sensor_type;location;lat;lon;timestamp;temperature;humidity
13389;DHT22;6764;53.250;10.410;2024-01-15T00:01:17;2.90;99.90
13389;DHT22;6764;53.250;10.410;2024-01-15T00:03:42;2.90;99.90
13389;DHT22;6764;53.250;10.410;2024-01-15T00:06:08;2.90;99.90
13389;DHT22;6764;53.250;10.410;2024-01-15T00:08:34;2.90;99.90
13389;DHT22;6764;53.250;10.410;2024-01-15T00:10:59;2.90;99.90
13389;DHT22;6764;53.250;10.410;2024-01-15T00:13:25;2.80;99.90
13389;DHT22;6764;53.250;10.410;2024-01-15T00:15:50;2.80;99.90
13389;DHT22;6764;53.250;10.410;2024-01-15T00:18:16;2.80;99.90
13389;DHT22;6764;53.250;10.410;2024-01-15T00:20:42;2.70;99.90
13389;DHT22;6764;53.250;10.410;2024-01-15T00:23:07;2.60;99.90
13389;DHT22;6764;53.250;10.410;2024-01-15T00:25:33;2.70;99.90
13389;DHT22;6764;53.250;10.410;2024-01-15T00:27:58;2.60;99.90
13389;DHT22;6764;53.250;10.410;2024-01-15T00:30:24;2.60;99.90
13389;DHT22;6764;53.250;10.410;2024-01-15T00:32:50;2.60;99.90
13389;DHT22;6764;53.250;10.410;2024-01-15T00:35:15;2.50;99.90
13389;DHT22;6764;53.250;10.410;2024-01-15T00:37:41;2.50;99.90
13389;DHT22;6764;53.250;10.410;2024-01-15T00:40:07;2.60;99.90
13389;DHT22;6764;53.250;10.410;2024-01-15T00:42:33;2.70;99.90
13389;DHT22;6764;53.250;10.410;2024-01-15T00:44:59;2.60;99.90
13389;DHT22;6764;53.250;10.410;2024-01-15T00:47:25;2.70;99.90
13389;DHT22;6764;53.250;10.410;2024-01-15T00:49:51;2.70;99.90
13389;DHT22;6764;53.250;10.410;2024-01-15T00:52:16;2.70;99.90
13389;DHT22;6764;53.250;10.410;2024-01-15T00:54:42;2.80;99.90
13389;DHT22;6764;53.250;10.410;2024-01-15T00:57:08;2.70;99.90
13389;DHT22;6764;53.250;10.410;2024-01-15T00:59:33;2.60;99.90
13389;DHT22;6764;53.250;10.410;2024-01-15T01:01:59;2.50;99.90
13389;DHT22;6764;53.250;10.410;2024-01-15T01:04:24;2.60;99.90
13389;DHT22;6764;53.250;10.410;2024-01-15T01:06:50;2.60;99.90
13389;DHT22;6764;53.250;10.410;2024-01-15T01:09:16;2.60;99.90
13389;DHT22;6764;53.250;10.410;2024-01-15T01:11:41;2.60;99.90
13389;DHT22;6764;53.250;10.410;2024-01-15T01:14:07;2.70;99.90
13389;DHT22;6764;53.250;10.410;2024-01-15T01:16:32;2.80;99.90
13389;DHT22;6764;53.250;10.410;2024-01-15T01:19:04;2.70;99.90
13389;DHT22;6764;53.250;10.410;2024-01-15T01:21:30;2.80;99.90
13389;DHT22;6764;53.250;10.410;2024-01-15T01:23:56;2.80;99.90
13389;DHT22;6764;53.250;10.410;2024-01-15T01:26:21;2.80;99.90
13389;DHT22;6764;53.250;10.410;2024-01-15T01:28:47;2.80;99.90
13389;DHT22;6764;53.250;10.410;2024-01-15T01:31:12;2.90;99.90
13389;DHT22;6764;53.250;10.410;2024-01-15T01:33:39;2.90;99.90
13389;DHT22;6764;53.250;10.410;2024-01-15T01:36:09;2.90;99.90
13389;DHT22;6764;53.250;10.410;2024-01-15T01:38:35;3.00;99.90
13389;DHT22;6764;53.250;10.410;2024-01-15T01:41:01;2.90;99.90
13389;DHT22;6764;53.250;10.410;2024-01-15T01:43:27;2.90;99.90
13389;DHT22;6764;53.250;10.410;2024-01-15T01:45:52;2.80;99.90
13389;DHT22;6764;53.250;10.410;2024-01-15T01:48:20;2.90;99.90
13389;DHT22;6764;53.250;10.410;2024-01-15T01:50:45;2.80;99.90
13389;DHT22;6764;53.250;10.410;2024-01-15T01:53:11;2.70;99.90
13389;DHT22;6764;53.250;10.410;2024-01-15T01:55:38;2.80;99.90
13389;DHT22;6764;53.250;10.410;2024-01-15T01:58:04;2.80;99.90
13389;DHT22;6764;53.250;10.410;2024-01-15T02:00:31;2.70;99.90
13389;DHT22;6764;53.250;10.410;2024-01-15T02:02:57;2.70;99.90
13389;DHT22;6764;53.250;10.410;2024-01-15T02:05:23;2.70;99.90
13389;DHT22;6764;53.250;10.410;2024-01-15T02:07:49;2.70;99.90
13389;DHT22;6764;53.250;10.410;2024-01-15T02:10:14;2.60;99.90
13389;DHT22;6764;53.250;10.410;2024-01-15T02:12:40;2.60;99.90
13389;DHT22;6764;53.250;10.410;2024-01-15T02:15:07;2.60;99.90
13389;DHT22;6764;53.250;10.410;2024-01-15T02:17:33;2.60;99.90
13389;DHT22;6764;53.250;10.410;2024-01-15T02:19:58;2.70;99.90
13389;DHT22;6764;53.250;10.410;2024-01-15T02:22:24;2.70;99.90
13389;DHT22;6764;53.250;10.410;2024-01-15T02:24:50;2.60;99.90
13389;DHT22;6764;53.250;10.410;2024-01-15T02:27:15;2.60;99.90
13389;DHT22;6764;53.250;10.410;2024-01-15T02:29:41;2.60;99.90
13389;DHT22;6764;53.250;10.410;2024-01-15T02:32:08;2.50;99.90
13389;DHT22;6764;53.250;10.410;2024-01-15T02:34:34;2.40;99.90
13389;DHT22;6764;53.250;10.410;2024-01-15T02:37:00;2.40;99.90
13389;DHT22;6764;53.250;10.410;2024-01-15T02:39:25;2.40;99.90
13389;DHT22;6764;53.250;10.410;2024-01-15T02:41:51;2.40;99.90
13389;DHT22;6764;53.250;10.410;2024-01-15T02:44:17;2.30;99.90
13389;DHT22;6764;53.250;10.410;2024-01-15T02:46:42;2.20;99.90
13389;DHT22;6764;53.250;10.410;2024-01-15T02:49:08;2.10;99.90
13389;DHT22;6764;53.250;10.410;2024-01-15T02:51:33;2.10;99.90
13389;DHT22;6764;53.250;10.410;2024-01-15T02:53:59;2.20;99.90
13389;DHT22;6764;53.250;10.410;2024-01-15T02:56:25;2.30;99.90
13389;DHT22;6764;53.250;10.410;2024-01-15T02:58:50;2.30;99.90
13389;DHT22;6764;53.250;10.410;2024-01-15T03:01:19;2.30;99.90
13389;DHT22;6764;53.250;10.410;2024-01-15T03:03:45;2.40;99.90
13389;DHT22;6764;53.250;10.410;2024-01-15T03:06:11;2.50;99.90
13389;DHT22;6764;53.250;10.410;2024-01-15T03:08:36;2.40;99.90
13389;DHT22;6764;53.250;10.410;2024-01-15T03:11:02;2.40;99.90
13389;DHT22;6764;53.250;10.410;2024-01-15T03:13:28;2.40;99.90
13389;DHT22;6764;53.250;10.410;2024-01-15T03:15:53;2.40;99.90
13389;DHT22;6764;53.250;10.410;2024-01-15T03:18:19;2.40;99.90
13389;DHT22;6764;53.250;10.410;2024-01-15T03:20:44;2.50;99.90
13389;DHT22;6764;53.250;10.410;2024-01-15T03:23:10;2.50;99.90
13389;DHT22;6764;53.250;10.410;2024-01-15T03:25:35;2.50;99.90
13389;DHT22;6764;53.250;10.410;2024-01-15T03:28:01;2.50;99.90
13389;DHT22;6764;53.250;10.410;2024-01-15T03:30:27;2.40;99.90
13389;DHT22;6764;53.250;10.410;2024-01-15T03:32:52;2.40;99.90
13389;DHT22;6764;53.250;10.410;2024-01-15T03:35:18;2.30;99.90
13389;DHT22;6764;53.250;10.410;2024-01-15T03:37:44;2.30;99.90
13389;DHT22;6764;53.250;10.410;2024-01-15T03:40:10;2.30;99.90
13389;DHT22;6764;53.250;10.410;2024-01-15T03:42:35;2.40;99.90
13389;DHT22;6764;53.250;10.410;2024-01-15T03:45:01;2.30;99.90
13389;DHT22;6764;53.250;10.410;2024-01-15T03:47:27;2.30;99.90
13389;DHT22;6764;53.250;10.410;2024-01-15T03:49:52;2.40;99.90
13389;DHT22;6764;53.250;10.410;2024-01-15T03:52:18;2.50;99.90
13389;DHT22;6764;53.250;10.410;2024-01-15T03:54:43;2.50;99.90
13389;DHT22;6764;53.250;10.410;2024-01-15T03:57:09;2.40;99.90
13389;DHT22;6764;53.250;10.410;2024-01-15T03:59:34;2.40;99.90
13389;DHT22;6764;53.250;10.410;2024-01-15T04:02:00;2.40;99.90
13389;DHT22;6764;53.250;10.410;2024-01-15T04:04:26;2.60;99.90
13389;DHT22;6764;53.250;10.410;2024-01-15T04:06:52;2.60;99.90
13389;DHT22;6764;53.250;10.410;2024-01-15T04:09:17;2.70;99.90
13389;DHT22;6764;53.250;10.410;2024-01-15T04:11:43;2.70;99.90
13389;DHT22;6764;53.250;10.410;2024-01-15T04:14:08;2.70;99.90
13389;DHT22;6764;53.250;10.410;2024-01-15T04:16:34;2.70;99.90
13389;DHT22;6764;53.250;10.410;2024-01-15T04:18:59;2.80;99.90
13389;DHT22;6764;53.250;10.410;2024-01-15T04:21:25;2.80;99.90
13389;DHT22;6764;53.250;10.410;2024-01-15T04:23:51;2.70;99.90
13389;DHT22;6764;53.250;10.410;2024-01-15T04:26:16;2.70;99.90
13389;DHT22;6764;53.250;10.410;2024-01-15T04:28:42;2.70;99.90
13389;DHT22;6764;53.250;10.410;2024-01-15T04:31:07;2.80;99.90
13389;DHT22;6764;53.250;10.410;2024-01-15T04:33:33;2.70;99.90
13389;DHT22;6764;53.250;10.410;2024-01-15T04:36:04;2.70;99.90
13389;DHT22;6764;53.250;10.410;2024-01-15T04:38:30;2.70;99.90
13389;DHT22;6764;53.250;10.410;2024-01-15T04:40:57;2.70;99.90
13389;DHT22;6764;53.250;10.410;2024-01-15T04:43:23;2.60;99.90
13389;DHT22;6764;53.250;10.410;2024-01-15T04:45:48;2.60;99.90
13389;DHT22;6764;53.250;10.410;2024-01-15T04:48:14;2.70;99.90
13389;DHT22;6764;53.250;10.410;2024-01-15T04:50:40;2.60;99.90
13389;DHT22;6764;53.250;10.410;2024-01-15T04:53:05;2.60;99.90
13389;DHT22;6764;53.250;10.410;2024-01-15T04:55:31;2.60;99.90
13389;DHT22;6764;53.250;10.410;2024-01-15T04:57:56;2.60;99.90
13389;DHT22;6764;53.250;10.410;2024-01-15T05:00:22;2.60;99.90
13389;DHT22;6764;53.250;10.410;2024-01-15T05:02:47;2.50;99.90
13389;DHT22;6764;53.250;10.410;2024-01-15T05:05:13;2.60;99.90
13389;DHT22;6764;53.250;10.410;2024-01-15T05:07:39;2.50;99.90
13389;DHT22;6764;53.250;10.410;2024-01-15T05:10:05;2.60;99.90
13389;DHT22;6764;53.250;10.410;2024-01-15T05:12:30;2.60;99.90
13389;DHT22;6764;53.250;10.410;2024-01-15T05:14:56;2.50;99.90
13389;DHT22;6764;53.250;10.410;2024-01-15T05:17:21;2.60;99.90
13389;DHT22;6764;53.250;10.410;2024-01-15T05:19:47;2.60;99.90
13389;DHT22;6764;53.250;10.410;2024-01-15T05:22:13;2.70;99.90
13389;DHT22;6764;53.250;10.410;2024-01-15T05:24:38;2.70;99.90
13389;DHT22;6764;53.250;10.410;2024-01-15T05:27:04;2.70;99.90
13389;DHT22;6764;53.250;10.410;2024-01-15T05:29:29;2.70;99.90
13389;DHT22;6764;53.250;10.410;2024-01-15T05:31:55;2.60;99.90
13389;DHT22;6764;53.250;10.410;2024-01-15T05:34:21;2.50;99.90
13389;DHT22;6764;53.250;10.410;2024-01-15T05:36:46;2.50;99.90
13389;DHT22;6764;53.250;10.410;2024-01-15T05:39:13;2.60;99.90
13389;DHT22;6764;53.250;10.410;2024-01-15T05:41:38;2.60;99.90
13389;DHT22;6764;53.250;10.410;2024-01-15T05:44:04;2.50;99.90
13389;DHT22;6764;53.250;10.410;2024-01-15T05:46:30;2.40;99.90
13389;DHT22;6764;53.250;10.410;2024-01-15T05:48:55;2.50;99.90
13389;DHT22;6764;53.250;10.410;2024-01-15T05:51:21;2.50;99.90
13389;DHT22;6764;53.250;10.410;2024-01-15T05:53:46;2.50;99.90
13389;DHT22;6764;53.250;10.410;2024-01-15T05:56:12;2.50;99.90
13389;DHT22;6764;53.250;10.410;2024-01-15T05:58:37;2.50;99.90
13389;DHT22;6764;53.250;10.410;2024-01-15T06:01:03;2.50;99.90
13389;DHT22;6764;53.250;10.410;2024-01-15T06:03:29;2.60;99.90
13389;DHT22;6764;53.250;10.410;2024-01-15T06:05:55;2.50;99.90
13389;DHT22;6764;53.250;10.410;2024-01-15T06:08:20;2.60;99.90
13389;DHT22;6764;53.250;10.410;2024-01-15T06:10:46;2.60;99.90
13389;DHT22;6764;53.250;10.410;2024-01-15T06:13:12;2.60;99.90
13389;DHT22;6764;53.250;10.410;2024-01-15T06:15:39;2.60;99.90
13389;DHT22;6764;53.250;10.410;2024-01-15T06:18:04;2.60;99.90
13389;DHT22;6764;53.250;10.410;2024-01-15T06:20:30;2.60;99.90
13389;DHT22;6764;53.250;10.410;2024-01-15T06:22:56;2.70;99.90
13389;DHT22;6764;53.250;10.410;2024-01-15T06:25:21;2.70;99.90
13389;DHT22;6764;53.250;10.410;2024-01-15T06:27:47;2.70;99.90
13389;DHT22;6764;53.250;10.410;2024-01-15T06:30:13;2.80;99.90
13389;DHT22;6764;53.250;10.410;2024-01-15T06:32:38;2.70;99.90
13389;DHT22;6764;53.250;10.410;2024-01-15T06:35:04;2.70;99.90
13389;DHT22;6764;53.250;10.410;2024-01-15T06:37:30;2.70;99.90
13389;DHT22;6764;53.250;10.410;2024-01-15T06:39:56;2.70;99.90
13389;DHT22;6764;53.250;10.410;2024-01-15T06:42:22;2.70;99.90
13389;DHT22;6764;53.250;10.410;2024-01-15T06:44:48;2.60;99.90
13389;DHT22;6764;53.250;10.410;2024-01-15T06:47:13;2.70;99.90
13389;DHT22;6764;53.250;10.410;2024-01-15T06:49:40;2.70;99.90
13389;DHT22;6764;53.250;10.410;2024-01-15T06:52:05;2.80;99.90
13389;DHT22;6764;53.250;10.410;2024-01-15T06:54:31;2.70;99.90
13389;DHT22;6764;53.250;10.410;2024-01-15T06:56:57;2.80;99.90
13389;DHT22;6764;53.250;10.410;2024-01-15T06:59:22;2.80;99.90
13389;DHT22;6764;53.250;10.410;2024-01-15T07:01:48;2.80;99.90
13389;DHT22;6764;53.250;10.410;2024-01-15T07:04:14;2.80;99.90
13389;DHT22;6764;53.250;10.410;2024-01-15T07:06:39;2.80;99.90
13389;DHT22;6764;53.250;10.410;2024-01-15T07:09:05;2.70;99.90
13389;DHT22;6764;53.250;10.410;2024-01-15T07:11:31;2.70;99.90
13389;DHT22;6764;53.250;10.410;2024-01-15T07:13:57;2.70;99.90
13389;DHT22;6764;53.250;10.410;2024-01-15T07:16:22;2.70;99.90
13389;DHT22;6764;53.250;10.410;2024-01-15T07:18:48;2.60;99.90
13389;DHT22;6764;53.250;10.410;2024-01-15T07:21:13;2.50;99.90
13389;DHT22;6764;53.250;10.410;2024-01-15T07:23:39;2.60;99.90
13389;DHT22;6764;53.250;10.410;2024-01-15T07:26:05;2.60;99.90
13389;DHT22;6764;53.250;10.410;2024-01-15T07:28:30;2.60;99.90
13389;DHT22;6764;53.250;10.410;2024-01-15T07:30:56;2.60;99.90
13389;DHT22;6764;53.250;10.410;2024-01-15T07:33:22;2.70;99.90
13389;DHT22;6764;53.250;10.410;2024-01-15T07:35:48;2.80;99.90
13389;DHT22;6764;53.250;10.410;2024-01-15T07:38:13;2.70;99.90
13389;DHT22;6764;53.250;10.410;2024-01-15T07:40:39;2.80;99.90
13389;DHT22;6764;53.250;10.410;2024-01-15T07:43:05;2.70;99.90
13389;DHT22;6764;53.250;10.410;2024-01-15T07:45:30;2.80;99.90
13389;DHT22;6764;53.250;10.410;2024-01-15T07:47:56;2.70;99.90
13389;DHT22;6764;53.250;10.410;2024-01-15T07:50:22;2.70;99.90
13389;DHT22;6764;53.250;10.410;2024-01-15T07:52:48;2.70;99.90
13389;DHT22;6764;53.250;10.410;2024-01-15T07:55:14;2.80;99.90
13389;DHT22;6764;53.250;10.410;2024-01-15T07:57:39;2.80;99.90
13389;DHT22;6764;53.250;10.410;2024-01-15T08:00:06;2.80;99.90
13389;DHT22;6764;53.250;10.410;2024-01-15T08:02:32;2.90;99.90
13389;DHT22;6764;53.250;10.410;2024-01-15T08:04:58;2.80;99.90
13389;DHT22;6764;53.250;10.410;2024-01-15T08:07:27;2.80;99.90
13389;DHT22;6764;53.250;10.410;2024-01-15T08:09:53;2.80;99.90
13389;DHT22;6764;53.250;10.410;2024-01-15T08:12:18;2.80;99.90
13389;DHT22;6764;53.250;10.410;2024-01-15T08:14:44;2.80;99.90
13389;DHT22;6764;53.250;10.410;2024-01-15T08:17:10;2.80;99.90
13389;DHT22;6764;53.250;10.410;2024-01-15T08:19:36;2.90;99.90
13389;DHT22;6764;53.250;10.410;2024-01-15T08:22:02;2.80;99.90
13389;DHT22;6764;53.250;10.410;2024-01-15T08:24:27;2.70;99.90
13389;DHT22;6764;53.250;10.410;2024-01-15T08:26:54;2.70;99.90
13389;DHT22;6764;53.250;10.410;2024-01-15T08:29:19;2.70;99.90
13389;DHT22;6764;53.250;10.410;2024-01-15T08:31:46;2.70;99.90
13389;DHT22;6764;53.250;10.410;2024-01-15T08:34:12;2.80;99.90
13389;DHT22;6764;53.250;10.410;2024-01-15T08:36:37;2.80;99.90
13389;DHT22;6764;53.250;10.410;2024-01-15T08:39:03;2.80;99.90
13389;DHT22;6764;53.250;10.410;2024-01-15T08:41:31;2.80;99.90
13389;DHT22;6764;53.250;10.410;2024-01-15T08:43:57;2.70;99.90
13389;DHT22;6764;53.250;10.410;2024-01-15T08:46:23;2.70;99.90
13389;DHT22;6764;53.250;10.410;2024-01-15T08:48:49;2.70;99.90
13389;DHT22;6764;53.250;10.410;2024-01-15T08:51:15;2.70;99.90
13389;DHT22;6764;53.250;10.410;2024-01-15T08:53:40;2.70;99.90
13389;DHT22;6764;53.250;10.410;2024-01-15T08:56:06;2.70;99.90
13389;DHT22;6764;53.250;10.410;2024-01-15T08:58:32;2.70;99.90
13389;DHT22;6764;53.250;10.410;2024-01-15T09:00:57;2.70;99.90
13389;DHT22;6764;53.250;10.410;2024-01-15T09:03:23;2.80;99.90
13389;DHT22;6764;53.250;10.410;2024-01-15T09:05:48;2.80;99.90
13389;DHT22;6764;53.250;10.410;2024-01-15T09:08:15;2.90;99.90
13389;DHT22;6764;53.250;10.410;2024-01-15T09:10:41;3.00;99.90
13389;DHT22;6764;53.250;10.410;2024-01-15T09:13:06;3.00;99.90
13389;DHT22;6764;53.250;10.410;2024-01-15T09:15:32;3.00;99.90
13389;DHT22;6764;53.250;10.410;2024-01-15T09:17:57;3.10;99.90
13389;DHT22;6764;53.250;10.410;2024-01-15T09:20:24;2.90;99.90
13389;DHT22;6764;53.250;10.410;2024-01-15T09:22:51;2.90;99.90
13389;DHT22;6764;53.250;10.410;2024-01-15T09:25:17;2.90;99.90
13389;DHT22;6764;53.250;10.410;2024-01-15T09:27:42;2.90;99.90
13389;DHT22;6764;53.250;10.410;2024-01-15T09:30:08;2.90;99.90
13389;DHT22;6764;53.250;10.410;2024-01-15T09:32:34;2.90;99.90
13389;DHT22;6764;53.250;10.410;2024-01-15T09:34:59;2.90;99.90
13389;DHT22;6764;53.250;10.410;2024-01-15T09:37:25;3.00;99.90
13389;DHT22;6764;53.250;10.410;2024-01-15T09:39:51;3.00;99.90
13389;DHT22;6764;53.250;10.410;2024-01-15T09:42:17;3.00;99.90
13389;DHT22;6764;53.250;10.410;2024-01-15T09:44:43;3.10;99.90
13389;DHT22;6764;53.250;10.410;2024-01-15T09:47:12;2.90;99.90
13389;DHT22;6764;53.250;10.410;2024-01-15T09:49:38;3.00;99.90
13389;DHT22;6764;53.250;10.410;2024-01-15T09:52:06;2.90;99.90
13389;DHT22;6764;53.250;10.410;2024-01-15T09:54:33;2.90;99.90
13389;DHT22;6764;53.250;10.410;2024-01-15T09:57:03;2.80;99.90
13389;DHT22;6764;53.250;10.410;2024-01-15T09:59:30;3.00;99.90
13389;DHT22;6764;53.250;10.410;2024-01-15T10:01:57;3.10;99.90
13389;DHT22;6764;53.250;10.410;2024-01-15T10:04:24;3.10;99.90
13389;DHT22;6764;53.250;10.410;2024-01-15T10:06:51;3.10;99.90
13389;DHT22;6764;53.250;10.410;2024-01-15T10:09:17;3.30;99.90
13389;DHT22;6764;53.250;10.410;2024-01-15T10:11:43;3.30;99.90
13389;DHT22;6764;53.250;10.410;2024-01-15T10:14:10;3.30;99.90
13389;DHT22;6764;53.250;10.410;2024-01-15T10:16:40;3.40;99.90
13389;DHT22;6764;53.250;10.410;2024-01-15T10:19:05;3.50;99.90
13389;DHT22;6764;53.250;10.410;2024-01-15T10:21:34;3.50;99.90
13389;DHT22;6764;53.250;10.410;2024-01-15T10:24:01;3.60;99.90
13389;DHT22;6764;53.250;10.410;2024-01-15T10:26:28;3.60;99.90
13389;DHT22;6764;53.250;10.410;2024-01-15T10:28:53;3.40;99.90
13389;DHT22;6764;53.250;10.410;2024-01-15T10:31:19;3.40;99.90
13389;DHT22;6764;53.250;10.410;2024-01-15T10:33:45;3.20;99.90
13389;DHT22;6764;53.250;10.410;2024-01-15T10:36:10;3.30;99.90
13389;DHT22;6764;53.250;10.410;2024-01-15T10:38:36;3.20;99.90
13389;DHT22;6764;53.250;10.410;2024-01-15T10:41:02;3.00;99.90
13389;DHT22;6764;53.250;10.410;2024-01-15T10:43:31;3.00;99.90
13389;DHT22;6764;53.250;10.410;2024-01-15T10:45:57;3.10;99.90
13389;DHT22;6764;53.250;10.410;2024-01-15T10:48:22;3.10;99.90
13389;DHT22;6764;53.250;10.410;2024-01-15T10:50:48;3.20;99.90
13389;DHT22;6764;53.250;10.410;2024-01-15T10:53:17;3.20;99.90
13389;DHT22;6764;53.250;10.410;2024-01-15T10:55:43;3.20;99.90
13389;DHT22;6764;53.250;10.410;2024-01-15T10:58:09;3.10;99.90
13389;DHT22;6764;53.250;10.410;2024-01-15T11:00:35;3.10;99.90
13389;DHT22;6764;53.250;10.410;2024-01-15T11:03:03;2.90;99.90
13389;DHT22;6764;53.250;10.410;2024-01-15T11:05:36;3.00;99.90
13389;DHT22;6764;53.250;10.410;2024-01-15T11:08:05;3.00;99.90
13389;DHT22;6764;53.250;10.410;2024-01-15T11:10:48;3.00;99.90
13389;DHT22;6764;53.250;10.410;2024-01-15T11:16:02;2.80;99.90
13389;DHT22;6764;53.250;10.410;2024-01-15T11:18:35;2.90;99.90
13389;DHT22;6764;53.250;10.410;2024-01-15T11:23:43;2.90;99.90
13389;DHT22;6764;53.250;10.410;2024-01-15T11:29:04;3.10;99.90
13389;DHT22;6764;53.250;10.410;2024-01-15T11:34:16;2.90;99.90
13389;DHT22;6764;53.250;10.410;2024-01-15T11:42:01;2.80;99.90
13389;DHT22;6764;53.250;10.410;2024-01-15T11:44:27;2.70;99.90
13389;DHT22;6764;53.250;10.410;2024-01-15T11:47:03;2.80;99.90
13389;DHT22;6764;53.250;10.410;2024-01-15T11:52:16;2.70;99.90
13389;DHT22;6764;53.250;10.410;2024-01-15T11:57:53;2.80;99.90
13389;DHT22;6764;53.250;10.410;2024-01-15T12:00:22;2.80;99.90
13389;DHT22;6764;53.250;10.410;2024-01-15T12:02:49;2.80;99.90
13389;DHT22;6764;53.250;10.410;2024-01-15T12:05:17;2.80;99.90
13389;DHT22;6764;53.250;10.410;2024-01-15T12:07:45;2.70;99.90
13389;DHT22;6764;53.250;10.410;2024-01-15T12:10:12;2.70;99.90
13389;DHT22;6764;53.250;10.410;2024-01-15T12:15:20;2.80;99.90
13389;DHT22;6764;53.250;10.410;2024-01-15T12:17:46;2.90;99.90
13389;DHT22;6764;53.250;10.410;2024-01-15T12:20:13;2.90;99.90
13389;DHT22;6764;53.250;10.410;2024-01-15T12:22:39;2.90;99.90
13389;DHT22;6764;53.250;10.410;2024-01-15T12:25:05;2.90;99.90
13389;DHT22;6764;53.250;10.410;2024-01-15T12:27:31;3.00;99.90
13389;DHT22;6764;53.250;10.410;2024-01-15T12:29:58;2.90;99.90
13389;DHT22;6764;53.250;10.410;2024-01-15T12:32:24;2.90;99.90
13389;DHT22;6764;53.250;10.410;2024-01-15T12:34:50;2.90;99.90
13389;DHT22;6764;53.250;10.410;2024-01-15T12:37:19;2.80;99.90
13389;DHT22;6764;53.250;10.410;2024-01-15T12:39:45;2.70;99.90
13389;DHT22;6764;53.250;10.410;2024-01-15T12:42:11;2.80;99.90
13389;DHT22;6764;53.250;10.410;2024-01-15T12:44:39;2.80;99.90
13389;DHT22;6764;53.250;10.410;2024-01-15T12:47:05;2.70;99.90
13389;DHT22;6764;53.250;10.410;2024-01-15T12:49:31;2.80;99.90
13389;DHT22;6764;53.250;10.410;2024-01-15T12:51:57;2.80;99.90
13389;DHT22;6764;53.250;10.410;2024-01-15T12:54:24;2.90;99.90
13389;DHT22;6764;53.250;10.410;2024-01-15T12:56:50;2.90;99.90
13389;DHT22;6764;53.250;10.410;2024-01-15T12:59:17;2.90;99.90
13389;DHT22;6764;53.250;10.410;2024-01-15T13:01:43;2.90;99.90
13389;DHT22;6764;53.250;10.410;2024-01-15T13:04:09;2.90;99.90
13389;DHT22;6764;53.250;10.410;2024-01-15T13:06:35;3.00;99.90
13389;DHT22;6764;53.250;10.410;2024-01-15T13:09:05;2.90;99.90
13389;DHT22;6764;53.250;10.410;2024-01-15T13:11:32;2.80;99.90
13389;DHT22;6764;53.250;10.410;2024-01-15T13:13:57;2.90;99.90
13389;DHT22;6764;53.250;10.410;2024-01-15T13:16:23;3.00;99.90
13389;DHT22;6764;53.250;10.410;2024-01-15T13:18:49;3.10;99.90
13389;DHT22;6764;53.250;10.410;2024-01-15T13:21:15;3.10;99.90
13389;DHT22;6764;53.250;10.410;2024-01-15T13:23:41;3.10;99.90
13389;DHT22;6764;53.250;10.410;2024-01-15T13:26:06;3.10;99.90
13389;DHT22;6764;53.250;10.410;2024-01-15T13:28:32;3.20;99.90
13389;DHT22;6764;53.250;10.410;2024-01-15T13:30:59;3.30;99.90
13389;DHT22;6764;53.250;10.410;2024-01-15T13:33:25;3.30;99.90
13389;DHT22;6764;53.250;10.410;2024-01-15T13:35:53;3.40;99.90
13389;DHT22;6764;53.250;10.410;2024-01-15T13:38:19;3.30;99.90
13389;DHT22;6764;53.250;10.410;2024-01-15T13:40:44;3.40;99.90
13389;DHT22;6764;53.250;10.410;2024-01-15T13:43:11;3.30;99.90
13389;DHT22;6764;53.250;10.410;2024-01-15T13:45:37;3.40;99.90
13389;DHT22;6764;53.250;10.410;2024-01-15T13:48:03;3.50;99.90
13389;DHT22;6764;53.250;10.410;2024-01-15T13:50:31;3.60;99.90
13389;DHT22;6764;53.250;10.410;2024-01-15T13:52:57;3.70;99.90
13389;DHT22;6764;53.250;10.410;2024-01-15T13:55:22;3.80;99.90
13389;DHT22;6764;53.250;10.410;2024-01-15T13:57:48;3.60;99.90
13389;DHT22;6764;53.250;10.410;2024-01-15T14:00:14;3.70;99.90
13389;DHT22;6764;53.250;10.410;2024-01-15T14:02:44;3.50;99.90
13389;DHT22;6764;53.250;10.410;2024-01-15T14:05:09;3.40;99.90
13389;DHT22;6764;53.250;10.410;2024-01-15T14:07:38;3.40;99.90
13389;DHT22;6764;53.250;10.410;2024-01-15T14:10:05;3.40;99.90
13389;DHT22;6764;53.250;10.410;2024-01-15T14:12:31;3.40;99.90
13389;DHT22;6764;53.250;10.410;2024-01-15T14:14:57;3.40;99.90
13389;DHT22;6764;53.250;10.410;2024-01-15T14:17:22;3.50;99.90
13389;DHT22;6764;53.250;10.410;2024-01-15T14:19:48;3.40;99.90
13389;DHT22;6764;53.250;10.410;2024-01-15T14:22:14;3.30;99.90
13389;DHT22;6764;53.250;10.410;2024-01-15T14:24:39;3.20;99.90
13389;DHT22;6764;53.250;10.410;2024-01-15T14:27:05;3.00;99.90
13389;DHT22;6764;53.250;10.410;2024-01-15T14:29:32;3.00;99.90
13389;DHT22;6764;53.250;10.410;2024-01-15T14:32:01;3.10;99.90
13389;DHT22;6764;53.250;10.410;2024-01-15T14:34:27;2.90;99.90
13389;DHT22;6764;53.250;10.410;2024-01-15T14:36:53;2.80;99.90
13389;DHT22;6764;53.250;10.410;2024-01-15T14:39:19;2.80;99.90
13389;DHT22;6764;53.250;10.410;2024-01-15T14:41:45;2.90;99.90
13389;DHT22;6764;53.250;10.410;2024-01-15T14:44:12;3.00;99.90
13389;DHT22;6764;53.250;10.410;2024-01-15T14:46:38;3.10;99.90
13389;DHT22;6764;53.250;10.410;2024-01-15T14:49:04;3.20;99.90
13389;DHT22;6764;53.250;10.410;2024-01-15T14:51:30;3.20;99.90
13389;DHT22;6764;53.250;10.410;2024-01-15T14:53:56;3.20;99.90
13389;DHT22;6764;53.250;10.410;2024-01-15T14:56:22;3.30;99.90
13389;DHT22;6764;53.250;10.410;2024-01-15T14:58:47;3.20;99.90
13389;DHT22;6764;53.250;10.410;2024-01-15T15:01:13;3.20;99.90
13389;DHT22;6764;53.250;10.410;2024-01-15T15:03:39;3.20;99.90
13389;DHT22;6764;53.250;10.410;2024-01-15T15:06:05;3.20;99.90
13389;DHT22;6764;53.250;10.410;2024-01-15T15:08:33;3.10;99.90
13389;DHT22;6764;53.250;10.410;2024-01-15T15:10:59;3.20;99.90
13389;DHT22;6764;53.250;10.410;2024-01-15T15:13:25;3.10;99.90
13389;DHT22;6764;53.250;10.410;2024-01-15T15:15:54;3.20;99.90
13389;DHT22;6764;53.250;10.410;2024-01-15T15:18:20;3.20;99.90
13389;DHT22;6764;53.250;10.410;2024-01-15T15:20:49;3.20;99.90
13389;DHT22;6764;53.250;10.410;2024-01-15T15:23:15;3.10;99.90
13389;DHT22;6764;53.250;10.410;2024-01-15T15:25:41;2.90;99.90
13389;DHT22;6764;53.250;10.410;2024-01-15T15:28:09;3.00;99.90
13389;DHT22;6764;53.250;10.410;2024-01-15T15:30:37;2.90;99.90
13389;DHT22;6764;53.250;10.410;2024-01-15T15:33:03;2.80;99.90
13389;DHT22;6764;53.250;10.410;2024-01-15T15:35:28;2.90;99.90
13389;DHT22;6764;53.250;10.410;2024-01-15T15:37:54;2.90;99.90
13389;DHT22;6764;53.250;10.410;2024-01-15T15:40:20;2.80;99.90
13389;DHT22;6764;53.250;10.410;2024-01-15T15:42:46;2.90;99.90
13389;DHT22;6764;53.250;10.410;2024-01-15T15:45:12;2.90;99.90
13389;DHT22;6764;53.250;10.410;2024-01-15T15:47:38;2.90;99.90
13389;DHT22;6764;53.250;10.410;2024-01-15T15:50:04;2.80;99.90
13389;DHT22;6764;53.250;10.410;2024-01-15T15:52:30;2.80;99.90
13389;DHT22;6764;53.250;10.410;2024-01-15T15:54:56;2.70;99.90
13389;DHT22;6764;53.250;10.410;2024-01-15T15:57:21;2.60;99.90
13389;DHT22;6764;53.250;10.410;2024-01-15T15:59:48;2.60;99.90
13389;DHT22;6764;53.250;10.410;2024-01-15T16:02:13;2.60;99.90